Daniel Field Augusta US
ICAO: KDNL
IATA: DNL
Category: Medium
Scheduled Services: No

Elevation: 423 ft
TransAlt. 18000 ft.

Airport Communications:
AUGUSTA APP/DEP:126.8
ASOS:135.275
CLNC DEL:128.1
MACON RDO:122.3
CTAF/UNICOM:123.05

KDNL Zoom In..

Runways:

(A) RW 05 length 4002 ft width 100 ft
---- / hdg 50

(B) RW 11 length 3733 ft width 100 ft
---- / hdg 108

(C) RW 23 length 4002 ft width 100 ft
---- / hdg 230

(D) RW 29 length 3733 ft width 100 ft
---- / hdg 288

Location; KDNL
Day. 07 / Time. 18.53 Zulu
* Altimeter: 29.99
* Temperature: 29° c. 84.2°f.
* Wind from: VRB° Speed 06 kn with Gusts up to 15 kn.
Dewpoint: 14° c.
Visibility: 10 Statute Miles.
Clouds: Few 6000 ft.
Clouds: Broken 11000 ft.

KDNL 071853Z AUTO VRB06G15KT 10SM FEW060 BKN110 29/14 A2999 RMK AO2 SLP149 T02890139


Wind From VRB°
Speed 06 kn.

 
 
jpsmedia worldairports.se 2020   terms of use